sensor_id;sensor_type;location;lat;lon;timestamp;P1;durP1;ratioP1;P2;durP2;ratioP2
45342;SDS011;31077;50.872;4.352;2023-04-06T00:02:00;8.15;;;3.25;;
45342;SDS011;31077;50.872;4.352;2023-04-06T00:04:26;6.47;;;3.13;;
45342;SDS011;31077;50.872;4.352;2023-04-06T00:06:51;5.75;;;3.17;;
45342;SDS011;31077;50.872;4.352;2023-04-06T00:09:17;4.28;;;2.67;;
45342;SDS011;31077;50.872;4.352;2023-04-06T00:11:43;5.80;;;2.78;;
45342;SDS011;31077;50.872;4.352;2023-04-06T00:14:09;9.65;;;3.22;;
45342;SDS011;31077;50.872;4.352;2023-04-06T00:16:34;11.10;;;3.58;;
45342;SDS011;31077;50.872;4.352;2023-04-06T00:19:00;4.57;;;3.05;;
45342;SDS011;31077;50.872;4.352;2023-04-06T00:21:26;5.40;;;3.03;;
45342;SDS011;31077;50.872;4.352;2023-04-06T00:23:52;6.95;;;2.97;;
45342;SDS011;31077;50.872;4.352;2023-04-06T00:26:17;5.18;;;3.40;;
45342;SDS011;31077;50.872;4.352;2023-04-06T00:28:43;4.75;;;3.03;;
45342;SDS011;31077;50.872;4.352;2023-04-06T00:31:09;4.20;;;3.15;;
45342;SDS011;31077;50.872;4.352;2023-04-06T00:33:36;5.28;;;3.08;;
45342;SDS011;31077;50.872;4.352;2023-04-06T00:36:02;8.95;;;3.10;;
45342;SDS011;31077;50.872;4.352;2023-04-06T00:38:28;3.90;;;3.20;;
45342;SDS011;31077;50.872;4.352;2023-04-06T00:40:55;5.65;;;3.42;;
45342;SDS011;31077;50.872;4.352;2023-04-06T00:43:21;5.22;;;3.30;;
45342;SDS011;31077;50.872;4.352;2023-04-06T00:45:46;4.20;;;2.78;;
45342;SDS011;31077;50.872;4.352;2023-04-06T00:48:12;5.43;;;3.03;;
45342;SDS011;31077;50.872;4.352;2023-04-06T00:50:38;7.22;;;3.58;;
45342;SDS011;31077;50.872;4.352;2023-04-06T00:53:04;5.18;;;3.38;;
45342;SDS011;31077;50.872;4.352;2023-04-06T00:55:30;5.40;;;3.08;;
45342;SDS011;31077;50.872;4.352;2023-04-06T00:57:57;11.05;;;3.22;;
45342;SDS011;31077;50.872;4.352;2023-04-06T01:00:24;5.18;;;3.13;;
45342;SDS011;31077;50.872;4.352;2023-04-06T01:02:50;4.22;;;2.78;;
45342;SDS011;31077;50.872;4.352;2023-04-06T01:05:16;4.07;;;3.10;;
45342;SDS011;31077;50.872;4.352;2023-04-06T01:07:42;5.25;;;3.03;;
45342;SDS011;31077;50.872;4.352;2023-04-06T01:10:07;5.30;;;3.30;;
45342;SDS011;31077;50.872;4.352;2023-04-06T01:12:34;3.75;;;2.97;;
45342;SDS011;31077;50.872;4.352;2023-04-06T01:15:01;5.07;;;3.13;;
45342;SDS011;31077;50.872;4.352;2023-04-06T01:17:26;5.70;;;3.03;;
45342;SDS011;31077;50.872;4.352;2023-04-06T01:19:53;7.47;;;3.25;;
45342;SDS011;31077;50.872;4.352;2023-04-06T01:22:19;4.70;;;3.00;;
45342;SDS011;31077;50.872;4.352;2023-04-06T01:24:45;4.47;;;3.22;;
45342;SDS011;31077;50.872;4.352;2023-04-06T01:27:12;4.47;;;3.17;;
45342;SDS011;31077;50.872;4.352;2023-04-06T01:29:38;4.82;;;3.40;;
45342;SDS011;31077;50.872;4.352;2023-04-06T01:32:06;4.53;;;3.15;;
45342;SDS011;31077;50.872;4.352;2023-04-06T01:34:34;5.30;;;3.20;;
45342;SDS011;31077;50.872;4.352;2023-04-06T01:36:59;7.38;;;2.90;;
45342;SDS011;31077;50.872;4.352;2023-04-06T01:39:26;4.95;;;3.40;;
45342;SDS011;31077;50.872;4.352;2023-04-06T01:41:52;6.32;;;3.47;;
45342;SDS011;31077;50.872;4.352;2023-04-06T01:44:18;6.00;;;3.35;;
45342;SDS011;31077;50.872;4.352;2023-04-06T01:46:44;5.10;;;3.63;;
45342;SDS011;31077;50.872;4.352;2023-04-06T01:49:11;6.38;;;3.25;;
45342;SDS011;31077;50.872;4.352;2023-04-06T01:51:37;5.10;;;3.03;;
45342;SDS011;31077;50.872;4.352;2023-04-06T01:54:02;6.18;;;3.28;;
45342;SDS011;31077;50.872;4.352;2023-04-06T01:56:29;7.28;;;3.35;;
45342;SDS011;31077;50.872;4.352;2023-04-06T01:58:54;4.03;;;3.13;;
45342;SDS011;31077;50.872;4.352;2023-04-06T02:01:21;5.05;;;3.20;;
45342;SDS011;31077;50.872;4.352;2023-04-06T02:03:46;3.20;;;2.67;;
45342;SDS011;31077;50.872;4.352;2023-04-06T02:06:12;4.50;;;3.30;;
45342;SDS011;31077;50.872;4.352;2023-04-06T02:08:38;5.18;;;3.35;;
45342;SDS011;31077;50.872;4.352;2023-04-06T02:11:04;5.60;;;3.65;;
45342;SDS011;31077;50.872;4.352;2023-04-06T02:13:30;4.25;;;3.10;;
45342;SDS011;31077;50.872;4.352;2023-04-06T02:15:56;4.90;;;3.22;;
45342;SDS011;31077;50.872;4.352;2023-04-06T02:18:22;8.55;;;3.90;;
45342;SDS011;31077;50.872;4.352;2023-04-06T02:20:48;5.00;;;3.60;;
45342;SDS011;31077;50.872;4.352;2023-04-06T02:23:13;4.03;;;3.15;;
45342;SDS011;31077;50.872;4.352;2023-04-06T02:25:39;4.95;;;3.58;;
45342;SDS011;31077;50.872;4.352;2023-04-06T02:28:07;4.18;;;3.25;;
45342;SDS011;31077;50.872;4.352;2023-04-06T02:30:34;4.35;;;3.30;;
45342;SDS011;31077;50.872;4.352;2023-04-06T02:33:01;5.82;;;4.03;;
45342;SDS011;31077;50.872;4.352;2023-04-06T02:35:28;4.18;;;3.17;;
45342;SDS011;31077;50.872;4.352;2023-04-06T02:37:55;4.50;;;3.35;;
45342;SDS011;31077;50.872;4.352;2023-04-06T02:40:20;5.03;;;3.65;;
45342;SDS011;31077;50.872;4.352;2023-04-06T02:42:46;7.40;;;3.97;;
45342;SDS011;31077;50.872;4.352;2023-04-06T02:45:12;4.65;;;3.47;;
45342;SDS011;31077;50.872;4.352;2023-04-06T02:47:38;4.18;;;3.08;;
45342;SDS011;31077;50.872;4.352;2023-04-06T02:50:04;4.30;;;3.30;;
45342;SDS011;31077;50.872;4.352;2023-04-06T02:52:30;4.80;;;3.53;;
45342;SDS011;31077;50.872;4.352;2023-04-06T02:54:58;6.05;;;3.58;;
45342;SDS011;31077;50.872;4.352;2023-04-06T02:57:25;5.88;;;3.83;;
45342;SDS011;31077;50.872;4.352;2023-04-06T02:59:50;4.68;;;2.92;;
45342;SDS011;31077;50.872;4.352;2023-04-06T03:02:16;7.95;;;3.67;;
45342;SDS011;31077;50.872;4.352;2023-04-06T03:04:44;5.55;;;3.60;;
45342;SDS011;31077;50.872;4.352;2023-04-06T03:07:10;8.75;;;3.80;;
45342;SDS011;31077;50.872;4.352;2023-04-06T03:09:39;6.75;;;3.85;;
45342;SDS011;31077;50.872;4.352;2023-04-06T03:12:05;5.93;;;3.60;;
45342;SDS011;31077;50.872;4.352;2023-04-06T03:14:37;6.05;;;3.60;;
45342;SDS011;31077;50.872;4.352;2023-04-06T03:17:04;5.97;;;4.07;;
45342;SDS011;31077;50.872;4.352;2023-04-06T03:19:31;4.72;;;3.38;;
45342;SDS011;31077;50.872;4.352;2023-04-06T03:21:56;6.47;;;3.72;;
45342;SDS011;31077;50.872;4.352;2023-04-06T03:24:22;6.30;;;3.80;;
45342;SDS011;31077;50.872;4.352;2023-04-06T03:26:49;4.60;;;3.17;;
45342;SDS011;31077;50.872;4.352;2023-04-06T03:29:15;4.88;;;3.40;;
45342;SDS011;31077;50.872;4.352;2023-04-06T03:31:42;6.20;;;4.07;;
45342;SDS011;31077;50.872;4.352;2023-04-06T03:34:07;4.80;;;3.80;;
45342;SDS011;31077;50.872;4.352;2023-04-06T03:36:35;6.28;;;3.72;;
45342;SDS011;31077;50.872;4.352;2023-04-06T03:39:02;6.93;;;4.03;;
45342;SDS011;31077;50.872;4.352;2023-04-06T03:41:29;4.45;;;3.75;;
45342;SDS011;31077;50.872;4.352;2023-04-06T03:43:54;4.10;;;3.33;;
45342;SDS011;31077;50.872;4.352;2023-04-06T03:46:20;4.75;;;3.80;;
45342;SDS011;31077;50.872;4.352;2023-04-06T03:48:48;4.95;;;3.33;;
45342;SDS011;31077;50.872;4.352;2023-04-06T03:51:14;5.43;;;3.70;;
45342;SDS011;31077;50.872;4.352;2023-04-06T03:53:39;5.18;;;3.30;;
45342;SDS011;31077;50.872;4.352;2023-04-06T03:56:05;5.88;;;3.50;;
45342;SDS011;31077;50.872;4.352;2023-04-06T03:58:31;5.07;;;3.85;;
45342;SDS011;31077;50.872;4.352;2023-04-06T04:00:57;4.57;;;3.20;;
45342;SDS011;31077;50.872;4.352;2023-04-06T04:03:22;5.32;;;3.22;;
45342;SDS011;31077;50.872;4.352;2023-04-06T04:05:49;4.63;;;3.50;;
45342;SDS011;31077;50.872;4.352;2023-04-06T04:08:15;5.05;;;3.70;;
45342;SDS011;31077;50.872;4.352;2023-04-06T04:10:42;4.50;;;3.38;;
45342;SDS011;31077;50.872;4.352;2023-04-06T04:13:08;4.25;;;3.10;;
45342;SDS011;31077;50.872;4.352;2023-04-06T04:15:35;4.80;;;3.65;;
45342;SDS011;31077;50.872;4.352;2023-04-06T04:18:00;4.47;;;3.33;;
45342;SDS011;31077;50.872;4.352;2023-04-06T04:20:26;5.32;;;3.78;;
45342;SDS011;31077;50.872;4.352;2023-04-06T04:22:53;5.10;;;3.50;;
45342;SDS011;31077;50.872;4.352;2023-04-06T04:25:19;4.78;;;3.50;;
45342;SDS011;31077;50.872;4.352;2023-04-06T04:27:45;5.53;;;3.55;;
45342;SDS011;31077;50.872;4.352;2023-04-06T04:30:10;4.45;;;3.22;;
45342;SDS011;31077;50.872;4.352;2023-04-06T04:32:37;4.50;;;3.15;;
45342;SDS011;31077;50.872;4.352;2023-04-06T04:35:03;5.20;;;3.40;;
45342;SDS011;31077;50.872;4.352;2023-04-06T04:37:29;5.55;;;3.28;;
45342;SDS011;31077;50.872;4.352;2023-04-06T04:39:54;5.05;;;3.40;;
45342;SDS011;31077;50.872;4.352;2023-04-06T04:42:20;5.53;;;3.45;;
45342;SDS011;31077;50.872;4.352;2023-04-06T04:44:46;4.50;;;3.17;;
45342;SDS011;31077;50.872;4.352;2023-04-06T04:47:12;4.85;;;3.70;;
45342;SDS011;31077;50.872;4.352;2023-04-06T04:49:38;5.38;;;3.83;;
45342;SDS011;31077;50.872;4.352;2023-04-06T04:52:04;5.07;;;3.53;;
45342;SDS011;31077;50.872;4.352;2023-04-06T04:54:29;5.15;;;3.72;;
45342;SDS011;31077;50.872;4.352;2023-04-06T04:56:55;4.55;;;3.40;;
45342;SDS011;31077;50.872;4.352;2023-04-06T04:59:21;3.70;;;3.25;;
45342;SDS011;31077;50.872;4.352;2023-04-06T05:01:47;5.93;;;4.03;;
45342;SDS011;31077;50.872;4.352;2023-04-06T05:04:14;5.78;;;3.53;;
45342;SDS011;31077;50.872;4.352;2023-04-06T05:06:41;5.20;;;4.10;;
45342;SDS011;31077;50.872;4.352;2023-04-06T05:09:06;4.85;;;3.55;;
45342;SDS011;31077;50.872;4.352;2023-04-06T05:11:32;4.93;;;3.70;;
45342;SDS011;31077;50.872;4.352;2023-04-06T05:13:58;6.15;;;3.90;;
45342;SDS011;31077;50.872;4.352;2023-04-06T05:16:24;7.82;;;4.72;;
45342;SDS011;31077;50.872;4.352;2023-04-06T05:18:51;5.70;;;3.90;;
45342;SDS011;31077;50.872;4.352;2023-04-06T05:21:18;5.20;;;3.40;;
45342;SDS011;31077;50.872;4.352;2023-04-06T05:23:44;6.38;;;3.97;;
45342;SDS011;31077;50.872;4.352;2023-04-06T05:26:10;5.18;;;3.50;;
45342;SDS011;31077;50.872;4.352;2023-04-06T05:28:36;5.55;;;4.00;;
45342;SDS011;31077;50.872;4.352;2023-04-06T05:31:01;5.95;;;3.78;;
45342;SDS011;31077;50.872;4.352;2023-04-06T05:33:27;6.88;;;3.30;;
45342;SDS011;31077;50.872;4.352;2023-04-06T05:35:53;5.45;;;3.67;;
45342;SDS011;31077;50.872;4.352;2023-04-06T05:38:19;5.20;;;3.20;;
45342;SDS011;31077;50.872;4.352;2023-04-06T05:40:45;5.38;;;3.55;;
45342;SDS011;31077;50.872;4.352;2023-04-06T05:43:10;4.68;;;3.47;;
45342;SDS011;31077;50.872;4.352;2023-04-06T05:45:36;4.70;;;3.63;;
45342;SDS011;31077;50.872;4.352;2023-04-06T05:48:02;5.18;;;3.40;;
45342;SDS011;31077;50.872;4.352;2023-04-06T05:50:28;6.40;;;3.90;;
45342;SDS011;31077;50.872;4.352;2023-04-06T05:52:55;7.03;;;3.22;;
45342;SDS011;31077;50.872;4.352;2023-04-06T05:55:21;7.05;;;3.50;;
45342;SDS011;31077;50.872;4.352;2023-04-06T05:57:46;6.28;;;3.70;;
45342;SDS011;31077;50.872;4.352;2023-04-06T06:00:12;4.13;;;3.45;;
45342;SDS011;31077;50.872;4.352;2023-04-06T06:02:39;5.53;;;3.80;;
45342;SDS011;31077;50.872;4.352;2023-04-06T06:05:07;6.60;;;3.80;;
45342;SDS011;31077;50.872;4.352;2023-04-06T06:07:33;4.90;;;3.35;;
45342;SDS011;31077;50.872;4.352;2023-04-06T06:09:59;5.32;;;3.78;;
45342;SDS011;31077;50.872;4.352;2023-04-06T06:12:25;4.63;;;3.28;;
45342;SDS011;31077;50.872;4.352;2023-04-06T06:14:50;6.55;;;3.63;;
45342;SDS011;31077;50.872;4.352;2023-04-06T06:17:16;5.18;;;3.58;;
45342;SDS011;31077;50.872;4.352;2023-04-06T06:19:42;7.28;;;3.92;;
45342;SDS011;31077;50.872;4.352;2023-04-06T06:22:07;5.10;;;3.33;;
45342;SDS011;31077;50.872;4.352;2023-04-06T06:24:33;8.35;;;3.67;;
45342;SDS011;31077;50.872;4.352;2023-04-06T06:26:59;6.78;;;4.05;;
45342;SDS011;31077;50.872;4.352;2023-04-06T06:29:25;8.45;;;3.50;;
45342;SDS011;31077;50.872;4.352;2023-04-06T06:31:50;4.40;;;3.20;;
45342;SDS011;31077;50.872;4.352;2023-04-06T06:34:16;9.60;;;3.85;;
45342;SDS011;31077;50.872;4.352;2023-04-06T06:36:42;10.85;;;4.35;;
45342;SDS011;31077;50.872;4.352;2023-04-06T06:39:08;5.13;;;3.45;;
45342;SDS011;31077;50.872;4.352;2023-04-06T06:41:34;6.85;;;4.05;;
45342;SDS011;31077;50.872;4.352;2023-04-06T06:44:00;6.72;;;3.72;;
45342;SDS011;31077;50.872;4.352;2023-04-06T06:46:27;6.30;;;3.50;;
45342;SDS011;31077;50.872;4.352;2023-04-06T06:48:54;13.80;;;3.90;;
45342;SDS011;31077;50.872;4.352;2023-04-06T06:51:20;11.07;;;3.72;;
45342;SDS011;31077;50.872;4.352;2023-04-06T06:53:46;14.45;;;4.20;;
45342;SDS011;31077;50.872;4.352;2023-04-06T06:56:12;11.50;;;3.85;;
45342;SDS011;31077;50.872;4.352;2023-04-06T06:58:39;5.80;;;3.50;;
45342;SDS011;31077;50.872;4.352;2023-04-06T07:01:07;6.90;;;3.20;;
45342;SDS011;31077;50.872;4.352;2023-04-06T07:03:32;9.63;;;3.55;;
45342;SDS011;31077;50.872;4.352;2023-04-06T07:05:58;5.30;;;3.92;;
45342;SDS011;31077;50.872;4.352;2023-04-06T07:08:24;7.28;;;3.70;;
45342;SDS011;31077;50.872;4.352;2023-04-06T07:10:51;7.45;;;3.55;;
45342;SDS011;31077;50.872;4.352;2023-04-06T07:13:18;6.10;;;3.25;;
45342;SDS011;31077;50.872;4.352;2023-04-06T07:15:47;5.78;;;3.53;;
45342;SDS011;31077;50.872;4.352;2023-04-06T07:18:15;9.32;;;3.10;;
45342;SDS011;31077;50.872;4.352;2023-04-06T07:20:42;10.23;;;3.10;;
45342;SDS011;31077;50.872;4.352;2023-04-06T07:23:08;5.32;;;3.00;;
45342;SDS011;31077;50.872;4.352;2023-04-06T07:25:35;6.65;;;3.80;;
45342;SDS011;31077;50.872;4.352;2023-04-06T07:28:01;7.93;;;2.90;;
45342;SDS011;31077;50.872;4.352;2023-04-06T07:30:27;8.13;;;2.92;;
45342;SDS011;31077;50.872;4.352;2023-04-06T07:32:54;8.18;;;3.35;;
45342;SDS011;31077;50.872;4.352;2023-04-06T07:35:25;6.47;;;3.13;;
45342;SDS011;31077;50.872;4.352;2023-04-06T07:37:52;5.60;;;3.33;;
45342;SDS011;31077;50.872;4.352;2023-04-06T07:40:20;6.35;;;2.75;;
45342;SDS011;31077;50.872;4.352;2023-04-06T07:42:46;5.05;;;2.65;;
45342;SDS011;31077;50.872;4.352;2023-04-06T07:45:13;7.20;;;2.92;;
45342;SDS011;31077;50.872;4.352;2023-04-06T07:47:40;4.93;;;2.65;;
45342;SDS011;31077;50.872;4.352;2023-04-06T07:50:06;4.43;;;2.70;;
45342;SDS011;31077;50.872;4.352;2023-04-06T07:52:32;5.43;;;2.80;;
45342;SDS011;31077;50.872;4.352;2023-04-06T07:54:58;7.40;;;3.17;;
45342;SDS011;31077;50.872;4.352;2023-04-06T07:57:24;6.82;;;2.75;;
45342;SDS011;31077;50.872;4.352;2023-04-06T07:59:50;5.85;;;2.97;;
45342;SDS011;31077;50.872;4.352;2023-04-06T08:02:17;3.15;;;2.20;;
45342;SDS011;31077;50.872;4.352;2023-04-06T08:04:43;4.03;;;2.30;;
45342;SDS011;31077;50.872;4.352;2023-04-06T08:07:09;3.88;;;2.53;;
45342;SDS011;31077;50.872;4.352;2023-04-06T08:09:36;3.53;;;2.20;;
45342;SDS011;31077;50.872;4.352;2023-04-06T08:12:02;5.75;;;2.72;;
45342;SDS011;31077;50.872;4.352;2023-04-06T08:14:28;2.65;;;1.90;;
45342;SDS011;31077;50.872;4.352;2023-04-06T08:16:53;5.13;;;2.35;;
45342;SDS011;31077;50.872;4.352;2023-04-06T08:19:19;4.65;;;2.13;;
45342;SDS011;31077;50.872;4.352;2023-04-06T08:21:45;4.35;;;2.33;;
45342;SDS011;31077;50.872;4.352;2023-04-06T08:24:12;4.22;;;2.20;;
45342;SDS011;31077;50.872;4.352;2023-04-06T08:26:38;3.45;;;1.73;;
45342;SDS011;31077;50.872;4.352;2023-04-06T08:29:04;5.43;;;2.53;;
45342;SDS011;31077;50.872;4.352;2023-04-06T08:31:32;3.58;;;1.90;;
45342;SDS011;31077;50.872;4.352;2023-04-06T08:33:58;4.75;;;2.45;;
45342;SDS011;31077;50.872;4.352;2023-04-06T08:36:24;4.35;;;2.00;;
45342;SDS011;31077;50.872;4.352;2023-04-06T08:38:50;2.53;;;1.85;;
45342;SDS011;31077;50.872;4.352;2023-04-06T08:41:16;2.65;;;1.63;;
45342;SDS011;31077;50.872;4.352;2023-04-06T08:43:49;2.80;;;1.90;;
45342;SDS011;31077;50.872;4.352;2023-04-06T08:46:34;3.15;;;1.75;;
45342;SDS011;31077;50.872;4.352;2023-04-06T08:49:01;3.40;;;1.92;;
45342;SDS011;31077;50.872;4.352;2023-04-06T08:51:28;2.72;;;1.90;;
45342;SDS011;31077;50.872;4.352;2023-04-06T08:53:58;2.10;;;1.60;;
45342;SDS011;31077;50.872;4.352;2023-04-06T08:56:26;2.92;;;1.92;;
45342;SDS011;31077;50.872;4.352;2023-04-06T08:58:53;3.65;;;1.67;;
45342;SDS011;31077;50.872;4.352;2023-04-06T09:01:21;2.22;;;1.73;;
45342;SDS011;31077;50.872;4.352;2023-04-06T09:03:51;4.72;;;1.50;;
45342;SDS011;31077;50.872;4.352;2023-04-06T09:06:21;3.78;;;1.65;;
45342;SDS011;31077;50.872;4.352;2023-04-06T09:08:48;2.58;;;1.75;;
45342;SDS011;31077;50.872;4.352;2023-04-06T09:11:14;4.13;;;1.60;;
45342;SDS011;31077;50.872;4.352;2023-04-06T09:13:44;3.28;;;1.65;;
45342;SDS011;31077;50.872;4.352;2023-04-06T09:16:15;3.40;;;1.75;;
45342;SDS011;31077;50.872;4.352;2023-04-06T09:18:41;2.78;;;1.40;;
45342;SDS011;31077;50.872;4.352;2023-04-06T09:21:08;4.47;;;1.70;;
45342;SDS011;31077;50.872;4.352;2023-04-06T09:23:35;4.25;;;1.50;;
45342;SDS011;31077;50.872;4.352;2023-04-06T09:31:30;3.47;;;1.70;;
45342;SDS011;31077;50.872;4.352;2023-04-06T09:34:00;2.92;;;1.95;;
45342;SDS011;31077;50.872;4.352;2023-04-06T09:36:34;1.70;;;1.42;;
45342;SDS011;31077;50.872;4.352;2023-04-06T09:39:06;2.53;;;1.73;;
45342;SDS011;31077;50.872;4.352;2023-04-06T09:41:33;2.25;;;1.48;;
45342;SDS011;31077;50.872;4.352;2023-04-06T09:44:12;2.50;;;1.77;;
45342;SDS011;31077;50.872;4.352;2023-04-06T09:46:41;2.45;;;1.77;;
45342;SDS011;31077;50.872;4.352;2023-04-06T09:49:08;6.55;;;1.80;;
45342;SDS011;31077;50.872;4.352;2023-04-06T09:51:45;2.88;;;1.88;;
45342;SDS011;31077;50.872;4.352;2023-04-06T09:54:18;2.38;;;1.40;;
45342;SDS011;31077;50.872;4.352;2023-04-06T09:57:07;2.40;;;1.80;;
45342;SDS011;31077;50.872;4.352;2023-04-06T10:08:08;1.65;;;1.17;;
45342;SDS011;31077;50.872;4.352;2023-04-06T10:10:41;4.10;;;1.60;;
45342;SDS011;31077;50.872;4.352;2023-04-06T10:13:09;6.55;;;2.13;;
45342;SDS011;31077;50.872;4.352;2023-04-06T10:15:37;17.60;;;4.38;;
45342;SDS011;31077;50.872;4.352;2023-04-06T10:18:03;15.38;;;3.60;;
45342;SDS011;31077;50.872;4.352;2023-04-06T10:31:25;3.45;;;1.42;;
45342;SDS011;31077;50.872;4.352;2023-04-06T10:34:01;3.13;;;1.80;;
45342;SDS011;31077;50.872;4.352;2023-04-06T10:36:34;3.58;;;1.77;;
